createdAt,value
2022-11-29T00:05:13.788Z,95.50
2022-11-29T00:10:16.141Z,107.15
2022-11-29T00:15:18.353Z,86.55
2022-11-29T00:20:20.581Z,82.03
2022-11-29T00:25:22.823Z,73.30
2022-11-29T00:30:25.008Z,91.68
2022-11-29T00:35:27.302Z,72.80
2022-11-29T00:40:29.541Z,77.40
2022-11-29T00:45:31.654Z,63.00
2022-11-29T00:50:33.746Z,55.90
2022-11-29T00:55:35.772Z,56.22
2022-11-29T01:00:37.998Z,59.83
2022-11-29T01:05:40.673Z,54.13
2022-11-29T01:10:42.711Z,45.53
2022-11-29T01:15:44.707Z,40.13
2022-11-29T01:20:47.066Z,34.92
2022-11-29T01:25:57.007Z,34.33
2022-11-29T01:30:59.354Z,25.92
2022-11-29T01:36:02.166Z,22.67
2022-11-29T01:41:12.921Z,20.45
2022-11-29T01:46:15.183Z,18.20
2022-11-29T01:51:17.572Z,17.75
2022-11-29T01:56:19.990Z,14.98
2022-11-29T02:01:22.308Z,13.18
2022-11-29T02:06:25.199Z,13.85
2022-11-29T02:12:02.532Z,13.77
2022-11-29T02:17:22.996Z,13.80
2022-11-29T02:22:47.931Z,9.77
2022-11-29T02:28:24.618Z,10.18
2022-11-29T02:33:45.566Z,7.40
2022-11-29T02:39:02.933Z,8.93
2022-11-29T02:44:20.510Z,11.15
2022-11-29T02:49:31.647Z,8.15
2022-11-29T03:00:04.018Z,6.70
2022-11-29T03:05:39.651Z,5.60
2022-11-29T03:10:50.655Z,6.40
2022-11-29T03:16:12.664Z,6.53
2022-11-29T03:21:48.461Z,7.07
2022-11-29T03:27:02.321Z,9.90
2022-11-29T03:32:38.863Z,8.48
2022-11-29T03:38:19.598Z,19.75
2022-11-29T03:43:39.713Z,6.57
2022-11-29T03:48:53.875Z,6.13
2022-11-29T03:54:02.950Z,5.07
2022-11-29T03:59:14.797Z,6.55
2022-11-29T04:04:42.196Z,3.30
2022-11-29T04:10:12.531Z,2.30
2022-11-29T04:15:48.947Z,3.30
2022-11-29T04:21:16.672Z,5.25
2022-11-29T04:26:30.905Z,5.90
2022-11-29T04:32:05.269Z,1.92
2022-11-29T04:37:32.087Z,1.30
2022-11-29T04:42:52.928Z,0.80
2022-11-29T04:48:39.555Z,1.02
2022-11-29T04:54:07.746Z,3.15
2022-11-29T04:59:38.459Z,3.55
2022-11-29T05:05:08.186Z,3.38
2022-11-29T05:10:25.622Z,1.50
2022-11-29T05:15:45.087Z,1.20
2022-11-29T05:20:53.300Z,1.60
2022-11-29T05:26:25.497Z,1.67
2022-11-29T05:32:01.842Z,9.35
2022-11-29T05:37:19.670Z,15.52
2022-11-29T05:42:49.815Z,11.77
2022-11-29T05:48:14.182Z,8.10
2022-11-29T05:53:42.616Z,15.85
2022-11-29T05:59:02.767Z,14.80
2022-11-29T06:04:14.608Z,11.77
2022-11-29T06:09:32.601Z,7.30
2022-11-29T06:15:03.586Z,11.85
2022-11-29T06:20:13.295Z,23.60
2022-11-29T06:25:23.501Z,180.65
2022-11-29T06:44:48.075Z,76.00
2022-11-29T06:50:33.391Z,71.28
2022-11-29T06:56:20.825Z,82.55
2022-11-29T07:01:46.023Z,58.33
2022-11-29T07:06:48.668Z,31.70
2022-11-29T07:11:51.091Z,35.95
2022-11-29T07:17:07.398Z,20.05
2022-11-29T07:22:22.247Z,22.45
2022-11-29T07:27:37.527Z,28.40
2022-11-29T07:33:00.576Z,24.95
2022-11-29T07:38:02.937Z,32.78
2022-11-29T07:43:23.265Z,18.42
2022-11-29T07:48:27.109Z,42.10
2022-11-29T07:53:30.583Z,45.55
2022-11-29T07:58:32.738Z,30.27
2022-11-29T08:03:35.894Z,34.72
2022-11-29T08:08:43.759Z,27.88
2022-11-29T08:13:46.535Z,32.10
2022-11-29T08:18:49.377Z,23.85
2022-11-29T08:23:52.211Z,29.38
2022-11-29T08:28:54.491Z,24.33
2022-11-29T08:33:56.503Z,17.85
2022-11-29T08:39:04.731Z,18.95
2022-11-29T08:49:15.121Z,27.25
2022-11-29T08:54:17.332Z,19.17
2022-11-29T08:59:19.465Z,16.38
2022-11-29T09:04:21.530Z,15.63
2022-11-29T09:09:23.725Z,16.13
2022-11-29T09:14:25.928Z,14.90
2022-11-29T09:19:28.726Z,17.85
2022-11-29T09:24:31.159Z,18.92
2022-11-29T09:29:33.564Z,17.42
2022-11-29T09:34:35.653Z,13.73
2022-11-29T09:39:38.329Z,15.15
2022-11-29T09:44:46.585Z,19.38
2022-11-29T09:49:55.999Z,25.60
2022-11-29T09:55:43.276Z,26.23
2022-11-29T10:00:56.850Z,21.23
2022-11-29T10:06:07.494Z,20.48
2022-11-29T10:11:20.562Z,22.60
2022-11-29T10:36:06.269Z,32.90
2022-11-29T10:41:15.174Z,69.22
2022-11-29T10:46:31.813Z,36.28
2022-11-29T10:51:35.271Z,27.17
2022-11-29T10:56:38.328Z,32.20
2022-11-29T11:01:44.301Z,27.38
2022-11-29T11:06:51.753Z,30.92
2022-11-29T11:11:58.027Z,17.73
2022-11-29T11:17:22.671Z,16.27
2022-11-29T11:22:26.962Z,27.73
2022-11-29T11:27:35.735Z,38.22
2022-11-29T11:32:37.878Z,24.23
2022-11-29T11:37:40.364Z,41.80
2022-11-29T11:42:43.044Z,18.60
2022-11-29T11:47:58.366Z,31.25
2022-11-29T11:53:17.775Z,53.22
2022-11-29T11:58:23.641Z,51.05
2022-11-29T12:03:50.397Z,23.23
2022-11-29T12:09:25.686Z,22.40
2022-11-29T12:14:36.707Z,115.22
2022-11-29T12:19:49.927Z,47.28
2022-11-29T12:24:59.960Z,47.80
2022-11-29T12:30:02.412Z,42.22
2022-11-29T12:35:04.500Z,19.27
2022-11-29T12:40:15.607Z,36.65
2022-11-29T12:45:48.648Z,25.77
2022-11-29T12:51:09.187Z,64.13
2022-11-29T12:56:22.324Z,26.20
2022-11-29T13:01:33.744Z,26.55
2022-11-29T13:06:56.623Z,27.73
2022-11-29T13:12:24.098Z,42.63
2022-11-29T13:18:01.176Z,30.00
2022-11-29T13:23:09.584Z,28.63
2022-11-29T13:28:32.613Z,37.22
2022-11-29T13:33:53.292Z,17.13
2022-11-29T13:39:23.403Z,27.77
2022-11-29T13:44:45.553Z,16.70
2022-11-29T13:49:56.127Z,10.05
2022-11-29T13:55:34.462Z,10.93
2022-11-29T14:00:42.690Z,6.28
2022-11-29T14:05:47.327Z,36.00
2022-11-29T14:10:51.390Z,25.33
2022-11-29T14:16:00.797Z,9.82
2022-11-29T14:21:04.818Z,11.95
2022-11-29T14:26:08.227Z,42.53
2022-11-29T14:31:10.752Z,36.50
2022-11-29T14:36:19.018Z,19.52
2022-11-29T14:41:26.971Z,16.63
2022-11-29T14:46:32.154Z,22.83
2022-11-29T14:51:35.368Z,19.75
2022-11-29T14:56:39.460Z,18.40
2022-11-29T15:01:45.808Z,28.08
2022-11-29T15:06:53.053Z,27.63
2022-11-29T15:12:03.473Z,29.20
2022-11-29T15:17:42.261Z,20.73
2022-11-29T15:22:55.144Z,12.20
2022-11-29T15:28:02.503Z,6.75
2022-11-29T15:33:18.815Z,28.25
2022-11-29T15:38:22.878Z,87.30
2022-11-29T15:43:31.983Z,28.27
2022-11-29T15:48:34.478Z,181.73
2022-11-29T15:54:11.306Z,48.05
2022-11-29T15:59:21.483Z,12.60
2022-11-29T16:04:25.523Z,13.70
2022-11-29T16:09:43.539Z,22.38
2022-11-29T16:14:54.075Z,32.10
2022-11-29T16:20:24.990Z,276.30
2022-11-29T16:25:27.644Z,35.55
2022-11-29T16:30:31.593Z,51.92
2022-11-29T16:35:34.960Z,27.77
2022-11-29T16:40:37.376Z,20.55
2022-11-29T16:45:41.841Z,31.17
2022-11-29T16:50:44.083Z,28.38
2022-11-29T16:55:46.463Z,48.95
2022-11-29T17:00:48.768Z,40.15
2022-11-29T17:05:50.867Z,18.58
2022-11-29T17:10:52.867Z,19.42
2022-11-29T17:15:55.065Z,19.13
2022-11-29T17:20:57.893Z,33.25
2022-11-29T17:26:01.031Z,40.33
2022-11-29T17:31:17.621Z,36.97
2022-11-29T17:36:21.367Z,40.28
2022-11-29T17:41:26.246Z,64.53
2022-11-29T17:46:34.569Z,42.45
2022-11-29T17:51:54.444Z,40.85
2022-11-29T17:56:57.155Z,39.20
2022-11-29T18:01:59.418Z,56.22
2022-11-29T18:07:01.833Z,44.15
2022-11-29T18:12:03.951Z,56.15
2022-11-29T18:17:05.992Z,44.65
2022-11-29T18:22:08.715Z,65.00
2022-11-29T18:27:10.957Z,68.38
2022-11-29T18:32:13.092Z,69.80
2022-11-29T18:37:23.366Z,75.45
2022-11-29T18:42:36.067Z,59.00
2022-11-29T18:47:38.109Z,59.42
2022-11-29T18:52:40.906Z,50.38
2022-11-29T18:57:44.301Z,57.95
2022-11-29T19:02:46.454Z,55.78
2022-11-29T19:07:48.622Z,64.63
2022-11-29T19:12:50.878Z,67.50
2022-11-29T19:17:53.305Z,65.30
2022-11-29T19:23:00.324Z,83.57
2022-11-29T19:28:03.010Z,67.28
2022-11-29T19:33:05.137Z,67.70
2022-11-29T19:38:07.250Z,74.43
2022-11-29T19:43:09.503Z,74.85
2022-11-29T19:48:11.682Z,72.57
2022-11-29T19:53:16.305Z,81.68
2022-11-29T19:58:18.423Z,90.05
2022-11-29T20:03:21.162Z,88.45
2022-11-29T20:08:23.482Z,103.25
2022-11-29T20:13:25.974Z,104.60
2022-11-29T20:18:31.949Z,81.13
2022-11-29T20:23:34.976Z,102.80
2022-11-29T20:28:37.600Z,95.30
2022-11-29T20:33:42.464Z,97.40
2022-11-29T20:38:55.222Z,95.82
2022-11-29T20:44:01.874Z,90.15
2022-11-29T20:49:06.673Z,94.20
2022-11-29T20:54:11.952Z,89.60
2022-11-29T20:59:14.337Z,72.75
2022-11-29T21:04:22.925Z,63.28
2022-11-29T21:09:25.712Z,79.30
2022-11-29T21:14:28.275Z,67.95
2022-11-29T21:19:30.978Z,67.28
2022-11-29T21:24:55.140Z,71.63
2022-11-29T21:29:57.768Z,69.57
2022-11-29T21:34:59.985Z,71.80
2022-11-29T21:40:02.148Z,73.13
2022-11-29T21:45:09.302Z,75.45
2022-11-29T21:50:17.189Z,75.70
2022-11-29T21:55:19.459Z,75.45
2022-11-29T22:00:21.733Z,79.55
2022-11-29T22:05:23.817Z,85.10
2022-11-29T22:10:26.207Z,81.25
2022-11-29T22:15:33.561Z,78.47
2022-11-29T22:20:35.666Z,84.32
2022-11-29T22:25:37.697Z,80.03
2022-11-29T22:30:39.821Z,102.50
2022-11-29T22:35:45.087Z,90.78
2022-11-29T22:40:47.334Z,95.00
2022-11-29T22:45:49.579Z,92.03
2022-11-29T22:50:51.713Z,110.35
2022-11-29T22:55:58.875Z,109.47
2022-11-29T23:01:09.754Z,105.88
2022-11-29T23:06:14.412Z,92.60
2022-11-29T23:11:19.907Z,92.97
2022-11-29T23:16:28.104Z,88.93
2022-11-29T23:21:36.268Z,78.57
2022-11-29T23:26:41.468Z,87.55
2022-11-29T23:31:44.295Z,81.90
2022-11-29T23:36:52.425Z,76.55
2022-11-29T23:41:55.046Z,82.13
2022-11-29T23:46:57.283Z,71.38
2022-11-29T23:52:00.741Z,76.15
2022-11-29T23:57:02.867Z,84.90
